Chadstone Weather > Observations for 12/10/20

Select Day:



Observations
Time Temp Hum DP Wind Gust Dir Rain >9am Press
C % C kph kph mm hPa
00:00 11.6 75 7.3 3.9 7.2 SE 0.0 1029.9
00:10 11.4 75 7.1 3.8 7.2 SE 0.0 1029.9
00:20 11.3 76 7.2 3.0 7.2 SE 0.0 1029.7
00:30 11.0 76 6.9 1.9 5.0 SE 0.0 1029.6
00:40 10.7 77 6.8 0.4 2.5 SE 0.0 1029.6
00:50 10.5 78 6.8 0.2 2.5 SE 0.0 1029.5
01:00 10.3 79 6.8 0.0 1.1 SE 0.0 1029.7
01:10 10.1 80 6.8 0.0 0.0 N 0.0 1029.4
01:20 10.0 80 6.7 0.5 3.6 NW 0.0 1029.5
01:30 10.0 82 7.1 0.6 3.6 NW 0.0 1029.4
01:40 9.7 83 7.0 0.0 0.0 N 0.0 1029.4
01:50 9.5 84 6.9 0.0 0.0 N 0.0 1029.4
02:00 9.3 84 6.7 0.0 0.0 N 0.0 1029.4
02:10 9.2 84 6.6 0.0 0.0 N 0.0 1029.3
02:20 9.0 84 6.4 0.0 0.0 N 0.0 1029.3
02:30 8.9 86 6.7 0.0 0.0 N 0.0 1029.3
02:40 8.7 86 6.5 0.0 0.0 N 0.0 1029.2
02:50 8.5 86 6.3 0.0 0.0 N 0.0 1029.2
03:00 8.3 86 6.1 0.0 0.0 N 0.0 1029.1
03:10 8.1 86 5.9 0.0 0.0 N 0.0 1029.2
03:20 8.1 87 6.1 0.0 0.0 N 0.0 1029.3
03:30 8.0 87 6.0 0.0 0.0 N 0.0 1029.3
03:40 8.0 87 6.0 0.0 0.0 N 0.0 1029.3
03:50 7.9 88 6.0 0.0 0.0 N 0.0 1029.4
04:00 7.8 88 5.9 0.0 0.0 N 0.0 1029.3
04:10 7.7 88 5.8 0.0 2.5 N 0.0 1029.1
04:20 7.7 88 5.8 0.0 0.0 N 0.0 1029.1
04:30 7.6 88 5.7 0.0 0.0 N 0.0 1029.0
04:40 7.5 88 5.6 0.1 2.5 N 0.0 1028.9
04:50 7.5 89 5.8 0.0 1.1 N 0.0 1028.9
05:00 7.4 89 5.7 0.0 3.6 N 0.0 1029.0
05:10 7.5 89 5.8 0.1 2.5 N 0.0 1029.1
05:20 7.5 90 6.0 0.0 0.0 N 0.0 1029.4
05:30 7.4 90 5.9 0.0 0.0 N 0.0 1029.4
05:40 7.3 90 5.8 0.0 0.0 N 0.0 1029.3
05:50 7.2 90 5.7 0.0 0.0 N 0.0 1029.4
06:00 7.3 90 5.8 0.0 0.0 N 0.0 1029.3
06:10 7.4 90 5.9 0.0 0.0 N 0.0 1029.2
06:20 7.4 90 5.9 0.2 3.6 N 0.0 1029.2
06:30 7.4 90 5.9 1.7 3.6 N 0.0 1029.4
06:40 7.4 91 6.0 1.4 3.6 N 0.0 1029.3
06:50 7.6 91 6.2 0.4 3.6 N 0.0 1029.6
07:00 7.7 91 6.3 1.6 6.1 N 0.0 1029.5
07:10 7.8 91 6.4 2.5 5.0 N 0.0 1029.9
07:20 7.8 91 6.4 2.9 6.1 N 0.0 1029.8
07:30 8.0 91 6.6 2.0 6.1 N 0.0 1029.9
07:40 8.2 91 6.8 2.1 7.2 NNW 0.0 1030.0
07:50 8.6 91 7.2 4.1 8.6 N 0.0 1029.9
08:00 8.9 92 7.7 4.7 9.7 NNE 0.0 1029.9
08:10 9.4 91 8.0 3.9 12.2 NNE 0.0 1029.7
08:20 9.9 90 8.3 5.3 12.2 N 0.0 1029.9
08:30 10.3 89 8.6 5.8 12.2 NNE 0.0 1029.7
08:40 10.6 88 8.7 2.6 8.6 NNE 0.0 1029.7
08:50 11.1 86 8.8 3.8 8.6 NNW 0.0 1029.6
09:00 11.6 85 9.2 5.3 9.7 N 0.0 1029.7
09:10 12.0 83 9.2 6.4 12.2 N 0.0 1029.6
09:20 12.5 82 9.5 3.9 7.2 N 0.0 1029.7
09:30 13.0 81 9.8 2.3 11.2 NW 0.0 1029.5
09:40 13.4 79 9.8 6.5 11.2 NNE 0.0 1029.1
09:50 13.9 77 9.9 7.4 12.2 NE 0.0 1029.0
10:00 14.5 75 10.1 6.7 13.3 N 0.0 1028.6
10:10 15.1 73 10.3 8.8 15.8 NE 0.0 1028.1
10:20 15.5 69 9.8 10.2 20.9 NNE 0.0 1028.0
10:30 16.2 66 9.8 8.7 17.3 NNE 0.0 1027.9
10:40 16.8 65 10.2 4.8 12.2 N 0.0 1028.1
10:50 17.4 62 10.1 10.0 18.4 N 0.0 1027.5
11:00 17.9 61 10.3 7.1 14.8 N 0.0 1028.0
11:10 17.6 61 10.0 5.8 13.3 NNW 0.0 1028.0
11:20 17.6 61 10.0 4.8 12.2 NW 0.0 1027.9
11:30 17.7 62 10.3 5.2 12.2 NW 0.0 1027.8
11:40 18.1 63 11.0 6.4 9.7 NNW 0.0 1027.8
11:50 18.3 60 10.4 6.0 11.2 NNE 0.0 1027.6
12:00 19.0 58 10.6 6.7 14.8 NW 0.0 1027.7
12:10 19.6 57 10.9 5.9 14.8 N 0.0 1027.3
12:20 19.8 57 11.0 7.1 17.3 NW 0.0 1027.2
12:30 20.0 50 9.3 10.3 23.4 NW 0.0 1027.0
12:40 20.4 47 8.7 12.7 30.6 N 0.0 1026.3
12:50 20.9 44 8.2 16.0 34.2 NNW 0.0 1026.0
13:00 21.1 42 7.7 17.6 34.2 NNW 0.0 1025.9
13:10 21.5 43 8.4 15.8 28.1 NNW 0.0 1025.6
13:20 21.8 43 8.7 13.1 25.6 NNW 0.0 1025.3
13:30 22.1 42 8.6 14.3 28.1 NW 0.0 1025.1
13:40 22.3 41 8.4 14.9 34.2 NNW 0.0 1024.8
13:50 22.1 41 8.2 15.3 37.8 NNW 0.0 1024.7
14:00 22.1 41 8.2 16.4 30.6 NNW 0.0 1024.5
14:10 22.5 42 9.0 17.8 29.5 NNW 0.0 1024.3
14:20 22.6 42 9.1 14.6 30.6 NNW 0.0 1024.1
14:30 22.7 42 9.1 16.0 30.6 NNW 0.0 1024.0
14:40 22.7 42 9.1 16.4 30.6 NNW 0.0 1023.7
14:50 22.9 42 9.3 16.6 22.0 NNW 0.0 1023.6
15:00 23.2 42 9.6 15.6 29.5 NNW 0.0 1023.4
15:10 23.3 42 9.7 16.5 36.7 N 0.0 1023.6
15:20 23.3 41 9.3 17.8 33.1 N 0.0 1023.7
15:30 23.5 41 9.5 14.9 35.6 NNW 0.0 1023.9
15:40 23.5 42 9.9 12.1 27.0 N 0.0 1024.0
15:50 23.4 43 10.1 17.4 29.5 N 0.0 1023.9
16:00 23.5 45 10.9 16.6 27.0 N 0.0 1024.0
16:10 23.6 45 11.0 16.5 30.6 N 0.0 1024.1
16:20 23.6 45 11.0 16.4 29.5 N 0.0 1024.1
16:30 23.8 46 11.5 16.7 28.1 NNW 0.0 1023.9
16:40 23.8 46 11.5 15.3 29.5 N 0.0 1024.0
16:50 23.6 45 11.0 15.3 28.1 NW 0.0 1023.9
17:00 23.5 44 10.6 12.1 23.4 N 0.0 1024.0
17:10 23.5 43 10.2 9.4 23.4 NNW 0.0 1024.0
17:20 23.4 43 10.1 12.4 23.4 NNW 0.0 1023.8
17:30 23.3 45 10.7 10.1 19.4 NNW 0.0 1023.9
17:40 23.2 45 10.6 13.2 27.0 N 0.0 1024.0
17:50 23.0 46 10.8 14.2 23.4 NNW 0.0 1024.1
18:00 23.0 46 10.8 11.6 19.4 N 0.0 1024.3
18:10 23.2 46 11.0 10.9 23.4 N 0.0 1024.5
18:20 23.2 46 11.0 11.7 24.5 NNE 0.0 1024.5
18:30 23.1 46 10.9 10.6 19.4 N 0.0 1024.6
18:40 23.0 46 10.8 9.3 18.4 N 0.0 1024.7
18:50 23.0 46 10.8 10.4 24.5 NNW 0.0 1024.5
19:00 22.8 45 10.3 10.6 24.5 NNW 0.0 1024.6
19:10 22.6 45 10.1 11.0 23.4 NNW 0.0 1024.6
19:20 22.5 46 10.3 10.6 23.4 NNE 0.0 1024.6
19:30 22.3 46 10.1 9.5 20.9 NNE 0.0 1024.4
19:40 22.2 46 10.0 8.6 20.9 NE 0.0 1023.9
19:50 22.0 46 9.9 11.4 19.4 NNE 0.0 1023.7
20:00 21.9 47 10.1 10.0 20.9 NNW 0.0 1023.8
20:10 21.8 48 10.3 9.3 19.4 NNW 0.0 1024.0
20:20 21.7 49 10.5 8.7 15.8 NE 0.0 1023.9
20:30 21.4 52 11.2 8.3 17.3 NE 0.0 1023.7
20:40 21.1 52 10.9 7.4 15.8 NE 0.0 1023.5
20:50 20.9 54 11.3 7.3 14.8 N 0.0 1023.5
21:00 20.7 55 11.3 6.4 12.2 NE 0.0 1023.5
21:10 20.5 55 11.2 8.8 18.4 NNE 0.0 1023.5
21:20 20.4 55 11.1 6.9 17.3 NNE 0.0 1023.7
21:30 20.2 56 11.2 6.0 15.8 NNE 0.0 1023.8
21:40 20.1 56 11.1 8.1 12.2 N 0.0 1023.8
21:50 20.0 56 11.0 5.4 12.2 N 0.0 1024.1
22:00 19.8 57 11.0 5.3 12.2 N 0.0 1024.3
22:10 19.6 57 10.9 4.8 9.7 N 0.0 1024.4
22:20 19.5 58 11.0 4.1 8.6 NNE 0.0 1024.5
22:30 19.3 58 10.8 5.1 9.7 NNE 0.0 1024.5
22:40 19.1 58 10.7 6.6 12.2 N 0.0 1024.6
22:50 18.9 60 11.0 3.3 12.2 NNW 0.0 1024.8
23:00 18.7 60 10.8 3.2 6.1 NW 0.0 1024.7
23:10 18.5 61 10.8 3.1 7.2 N 0.0 1024.7
23:20 18.5 61 10.8 4.5 9.7 NE 0.0 1024.8
23:30 18.4 61 10.8 3.8 11.2 N 0.0 1024.8
23:40 18.5 60 10.6 5.0 9.7 N 0.0 1024.8
23:50 18.5 60 10.6 4.6 13.3 N 0.0 1024.8